Mooreville, MS (38857)

12:56 AM CST on March 01, 2015 (GMT -0600)
Deer Park Estates | Change Station
CLOSE
Current Station
Personal Weather Station
Location: Tupelo, MS
Elevation: 364 ft
Nearby Weather Stations

Elev 364 ft 34.29 °N, 88.66 °W | Updated 16 seconds ago

Overcast
Overcast
40.3 °F
Feels Like 40 °F
N
0.2
Wind Variable Wind from South
Gusts 2.5 mph

Today
High -- | Low -- °F
--% Chance of Precip.
Yesterday
High -- | Low -- °F
Precip. -- in
6:23 AM 5:50 PM
Waxing Gibbous, 83% visible
Pressure 30.32 in
Visibility 10.0 miles
Clouds Clear
Windchill 40 °F
Dew Point 32 °F
Humidity 72%
Rainfall 0.00 in
Snow Depth Not available.
UV 0 out of 12
Pollen 6.00 out of 12
Air Quality Not available.
Flu Activity Not available.
METAR KTUP 010653Z 16008KT 10SM CLR 07/01 A3031 RMK AO2 SLP265 T00720011

More Conditions Fewer Conditions

Pressure 30.32 in
Visibility 10.0 miles
Clouds Clear
Windchill 40 °F
Dew Point 32 °F
Humidity 72%
Rainfall 0.00 in
Snow Depth Not available.
UV 0 out of 12
Pollen 6.00 out of 12
Air Quality Not available.
Flu Activity Not available.
METAR KTUP 010653Z 16008KT 10SM CLR 07/01 A3031 RMK AO2 SLP265 T00720011

More Conditions Fewer Conditions

10-Day Weather Forecast

Almanac

Astronomy

Mar. 01, 2015 Rise Set
Actual Time
Civil Twilight
Nautical Twilight
Astronomical Twilight
Moon
Length of Visible Light
Length of Day
Tomorrow will be .
, % of the Moon is Illuminated

Today's Extremes

State Highs State Lows

Community

WunderPhotos

Upload Photos

1,801,345 photos uploaded!

WunderBlogs® & News

Nearby

Air Quality

  Air Quality AQ Index Pollutant
Not available.

Snow Depth

Station Depth Elevation

Earthquake Activity

City Distance Mag. Time & Date
Minimum magnitude displayed is 2.5.

Coastal Water Temperatures

Place Temperature

Nearby Weather Stations